createdAt,value
2023-05-04T00:02:26.631Z,58.05
2023-05-04T00:04:56.973Z,58.26
2023-05-04T00:07:26.918Z,58.35
2023-05-04T00:09:56.780Z,58.57
2023-05-04T00:12:29.795Z,59.10
2023-05-04T00:14:59.828Z,58.90
2023-05-04T00:17:29.983Z,58.84
2023-05-04T00:19:59.935Z,59.03
2023-05-04T00:22:29.935Z,59.01
2023-05-04T00:25:00.054Z,59.01
2023-05-04T00:27:32.797Z,59.34
2023-05-04T00:30:02.997Z,59.34
2023-05-04T00:32:36.520Z,59.60
2023-05-04T00:35:07.051Z,59.57
2023-05-04T00:37:37.273Z,59.47
2023-05-04T00:40:08.136Z,59.76
2023-05-04T00:42:40.780Z,59.94
2023-05-04T00:45:11.808Z,59.94
2023-05-04T00:47:41.906Z,60.01
2023-05-04T00:50:13.875Z,60.11
2023-05-04T00:52:44.878Z,60.19
2023-05-04T00:55:14.849Z,60.32
2023-05-04T00:57:47.634Z,60.70
2023-05-04T01:00:18.356Z,60.82
2023-05-04T01:02:48.511Z,60.90
2023-05-04T01:05:18.977Z,60.90
2023-05-04T01:08:00.142Z,61.45
2023-05-04T01:10:37.703Z,61.19
2023-05-04T01:13:14.146Z,61.67
2023-05-04T01:15:45.528Z,61.50
2023-05-04T01:18:17.004Z,61.40
2023-05-04T01:20:47.193Z,61.77
2023-05-04T01:23:19.940Z,61.91
2023-05-04T01:25:59.393Z,62.15
2023-05-04T01:28:36.955Z,62.02
2023-05-04T01:31:08.821Z,62.07
2023-05-04T01:33:40.949Z,61.85
2023-05-04T01:36:11.647Z,61.93
2023-05-04T01:38:45.157Z,61.98
2023-05-04T01:41:15.047Z,61.88
2023-05-04T01:43:45.420Z,62.38
2023-05-04T01:46:15.388Z,62.35
2023-05-04T01:48:45.475Z,62.45
2023-05-04T01:51:15.518Z,62.46
2023-05-04T01:53:48.066Z,62.80
2023-05-04T01:56:18.028Z,62.67
2023-05-04T01:58:48.006Z,62.92
2023-05-04T02:01:17.907Z,63.08
2023-05-04T02:03:47.957Z,63.11
2023-05-04T02:06:17.866Z,62.92
2023-05-04T02:08:51.244Z,63.11
2023-05-04T02:11:22.137Z,63.14
2023-05-04T02:13:52.108Z,63.46
2023-05-04T02:16:22.101Z,63.27
2023-05-04T02:18:52.533Z,63.60
2023-05-04T02:21:22.572Z,63.69
2023-05-04T02:23:55.303Z,63.89
2023-05-04T02:26:25.406Z,63.65
2023-05-04T02:28:55.735Z,63.85
2023-05-04T02:31:25.747Z,64.04
2023-05-04T02:33:56.011Z,64.23
2023-05-04T02:36:26.111Z,64.28
2023-05-04T02:39:00.835Z,64.58
2023-05-04T02:41:31.195Z,64.29
2023-05-04T02:44:01.250Z,64.23
2023-05-04T02:46:32.373Z,64.31
2023-05-04T02:49:02.303Z,64.53
2023-05-04T02:51:32.333Z,64.50
2023-05-04T02:54:04.944Z,64.74
2023-05-04T02:56:34.848Z,64.43
2023-05-04T02:59:05.066Z,64.52
2023-05-04T03:01:35.114Z,64.74
2023-05-04T03:04:05.131Z,64.75
2023-05-04T03:06:35.313Z,64.79
2023-05-04T03:09:07.880Z,64.93
2023-05-04T03:11:37.767Z,64.73
2023-05-04T03:14:07.736Z,64.84
2023-05-04T03:16:38.033Z,64.96
2023-05-04T03:19:08.035Z,64.78
2023-05-04T03:21:37.862Z,64.62
2023-05-04T03:24:11.675Z,64.74
2023-05-04T03:26:41.664Z,64.43
2023-05-04T03:29:11.868Z,64.68
2023-05-04T03:31:41.845Z,64.86
2023-05-04T03:34:12.937Z,65.16
2023-05-04T03:36:42.929Z,65.05
2023-05-04T03:39:16.654Z,65.03
2023-05-04T03:41:46.669Z,65.35
2023-05-04T03:44:16.643Z,65.75
2023-05-04T03:46:47.005Z,65.60
2023-05-04T03:49:17.152Z,65.58
2023-05-04T03:51:47.427Z,65.74
2023-05-04T03:54:20.097Z,66.07
2023-05-04T03:56:49.980Z,66.09
2023-05-04T03:59:19.936Z,65.69
2023-05-04T04:01:49.878Z,65.92
2023-05-04T04:04:19.753Z,66.24
2023-05-04T04:06:49.838Z,66.28
2023-05-04T04:09:22.548Z,66.61
2023-05-04T04:11:52.827Z,66.63
2023-05-04T04:14:22.804Z,66.71
2023-05-04T04:16:52.903Z,66.84
2023-05-04T04:19:22.945Z,66.70
2023-05-04T04:21:53.300Z,66.64
2023-05-04T04:24:26.161Z,66.81
2023-05-04T04:26:56.519Z,66.94
2023-05-04T04:29:26.559Z,67.07
2023-05-04T04:31:57.024Z,67.12
2023-05-04T04:34:27.346Z,67.22
2023-05-04T04:36:58.015Z,67.30
2023-05-04T04:39:30.869Z,67.27
2023-05-04T04:42:00.886Z,67.38
2023-05-04T04:44:30.993Z,67.39
2023-05-04T04:47:19.592Z,67.92
2023-05-04T04:49:49.671Z,67.81
2023-05-04T04:52:20.300Z,68.00
2023-05-04T04:54:52.837Z,68.12
2023-05-04T04:57:22.789Z,68.27
2023-05-04T04:59:53.480Z,68.87
2023-05-04T05:02:23.382Z,68.66
2023-05-04T05:04:54.390Z,68.76
2023-05-04T05:07:24.340Z,68.46
2023-05-04T05:09:57.069Z,69.21
2023-05-04T05:12:26.998Z,68.93
2023-05-04T05:14:57.058Z,69.10
2023-05-04T05:17:29.879Z,68.68
2023-05-04T05:19:59.877Z,68.95
2023-05-04T05:22:29.940Z,69.16
2023-05-04T05:25:02.495Z,69.55
2023-05-04T05:27:32.354Z,69.57
2023-05-04T05:30:02.594Z,69.98
2023-05-04T05:32:32.878Z,70.01
2023-05-04T05:35:02.789Z,69.85
2023-05-04T05:37:33.216Z,70.21
2023-05-04T05:40:08.252Z,70.86
2023-05-04T05:42:38.777Z,70.31
2023-05-04T05:45:10.402Z,70.40
2023-05-04T05:47:40.399Z,70.55
2023-05-04T05:50:12.619Z,70.45
2023-05-04T05:52:42.534Z,70.06
2023-05-04T05:55:15.580Z,70.34
2023-05-04T05:57:45.503Z,69.71
2023-05-04T06:00:17.074Z,69.87
2023-05-04T06:02:47.840Z,69.78
2023-05-04T06:05:18.129Z,69.89
2023-05-04T06:07:47.970Z,69.78
2023-05-04T06:10:20.735Z,69.67
2023-05-04T06:12:50.662Z,69.86
2023-05-04T06:15:20.982Z,70.13
2023-05-04T06:17:51.674Z,69.76
2023-05-04T06:20:21.762Z,70.09
2023-05-04T06:22:51.758Z,70.03
2023-05-04T06:25:24.359Z,70.24
2023-05-04T06:27:54.310Z,70.21
2023-05-04T06:30:25.420Z,70.22
2023-05-04T06:33:07.439Z,70.19
2023-05-04T06:35:37.324Z,69.79
2023-05-04T06:38:07.214Z,69.15
2023-05-04T06:40:39.796Z,69.97
2023-05-04T06:43:09.917Z,69.30
2023-05-04T06:45:40.356Z,68.29
2023-05-04T06:48:11.017Z,68.14
2023-05-04T06:50:42.545Z,67.82
2023-05-04T06:53:13.605Z,66.85
2023-05-04T06:55:46.090Z,66.35
2023-05-04T06:58:18.150Z,65.38
2023-05-04T07:00:47.954Z,64.62
2023-05-04T07:03:18.023Z,63.07
2023-05-04T07:05:49.056Z,63.00
2023-05-04T07:08:19.862Z,63.01
2023-05-04T07:10:52.256Z,62.58
2023-05-04T07:13:22.141Z,61.51
2023-05-04T07:15:52.072Z,60.93
2023-05-04T07:18:22.797Z,60.49
2023-05-04T07:20:54.265Z,60.17
2023-05-04T07:23:26.053Z,60.56
2023-05-04T07:25:58.877Z,59.80
2023-05-04T07:28:28.694Z,58.77
2023-05-04T07:30:58.634Z,58.89
2023-05-04T07:33:28.806Z,58.30
2023-05-04T07:36:02.310Z,58.07
2023-05-04T07:38:32.217Z,57.10
2023-05-04T07:41:04.694Z,56.20
2023-05-04T07:43:34.538Z,56.22
2023-05-04T07:46:04.632Z,56.09
2023-05-04T07:48:36.838Z,55.62
2023-05-04T07:51:07.051Z,55.35
2023-05-04T07:53:37.169Z,54.84
2023-05-04T07:56:14.661Z,53.41
2023-05-04T07:58:44.771Z,54.75
2023-05-04T08:01:14.859Z,54.43
2023-05-04T08:03:45.494Z,53.72
2023-05-04T08:06:15.958Z,53.38
2023-05-04T08:08:52.008Z,53.32
2023-05-04T08:11:26.009Z,52.96
2023-05-04T08:13:55.867Z,51.47
2023-05-04T08:16:26.103Z,50.00
2023-05-04T08:18:56.407Z,51.38
2023-05-04T08:21:26.623Z,50.39
2023-05-04T08:23:56.678Z,49.90
2023-05-04T08:26:29.397Z,50.10
2023-05-04T08:29:10.778Z,48.18
2023-05-04T08:31:41.356Z,47.88
2023-05-04T08:34:11.376Z,49.09
2023-05-04T08:36:41.478Z,49.57
2023-05-04T08:39:12.204Z,49.76
2023-05-04T08:41:45.067Z,49.62
2023-05-04T08:44:15.246Z,49.12
2023-05-04T08:46:46.117Z,48.62
2023-05-04T08:49:16.143Z,48.78
2023-05-04T08:51:46.391Z,47.96
2023-05-04T08:54:16.461Z,47.70
2023-05-04T08:56:49.885Z,45.58
2023-05-04T08:59:23.531Z,45.73
2023-05-04T09:01:57.624Z,46.91
2023-05-04T09:04:29.675Z,46.64
2023-05-04T09:06:59.810Z,46.47
2023-05-04T09:09:31.944Z,44.33
2023-05-04T09:12:04.541Z,45.12
2023-05-04T09:14:38.480Z,43.90
2023-05-04T09:17:17.813Z,44.68
2023-05-04T09:19:47.997Z,44.96
2023-05-04T09:22:18.729Z,45.06
2023-05-04T09:24:48.889Z,44.88
2023-05-04T09:27:22.532Z,43.47
2023-05-04T09:29:58.221Z,42.48
2023-05-04T09:32:28.749Z,42.06
2023-05-04T09:35:01.894Z,41.05
2023-05-04T09:37:32.019Z,41.48
2023-05-04T09:40:02.421Z,42.02
2023-05-04T09:42:34.880Z,41.29
2023-05-04T09:45:09.029Z,41.92
2023-05-04T09:47:39.883Z,40.00
2023-05-04T09:50:20.255Z,39.41
2023-05-04T09:52:51.627Z,40.37
2023-05-04T09:55:23.235Z,40.66
2023-05-04T09:57:56.128Z,38.85
2023-05-04T10:00:26.517Z,39.11
2023-05-04T10:02:57.218Z,39.30
2023-05-04T10:05:28.750Z,39.09
2023-05-04T10:08:02.427Z,38.66
2023-05-04T10:10:32.854Z,38.13
2023-05-04T10:13:05.438Z,38.93
2023-05-04T10:15:36.641Z,38.63
2023-05-04T10:18:17.902Z,36.96
2023-05-04T10:21:04.124Z,37.73
2023-05-04T10:23:49.203Z,37.96
2023-05-04T10:26:36.185Z,37.83
2023-05-04T10:31:49.089Z,37.60
2023-05-04T10:34:28.139Z,36.46
2023-05-04T10:36:59.116Z,36.21
2023-05-04T10:39:30.829Z,35.63
2023-05-04T10:42:05.135Z,36.43
2023-05-04T10:44:39.215Z,34.57
2023-05-04T10:47:10.338Z,35.93
2023-05-04T10:49:40.305Z,35.27
2023-05-04T10:52:16.360Z,33.90
2023-05-04T10:54:47.084Z,34.71
2023-05-04T10:57:17.741Z,35.43
2023-05-04T10:59:58.131Z,34.91
2023-05-04T11:02:31.096Z,35.74
2023-05-04T11:05:08.464Z,35.45
2023-05-04T11:07:40.058Z,34.15
2023-05-04T11:10:12.127Z,35.04
2023-05-04T11:12:42.052Z,34.77
2023-05-04T11:15:15.160Z,34.82
2023-05-04T11:17:49.279Z,34.82
2023-05-04T11:20:25.598Z,33.71
2023-05-04T11:22:56.258Z,34.27
2023-05-04T11:25:30.843Z,32.98
2023-05-04T11:28:01.745Z,33.69
2023-05-04T11:30:38.671Z,32.95
2023-05-04T11:33:15.474Z,31.74
2023-05-04T11:35:47.207Z,33.50
2023-05-04T11:38:21.973Z,33.37
2023-05-04T11:40:51.902Z,31.45
2023-05-04T11:43:22.443Z,31.25
2023-05-04T11:45:58.211Z,33.26
2023-05-04T11:48:28.614Z,32.76
2023-05-04T11:50:59.019Z,33.38
2023-05-04T11:53:29.391Z,32.73
2023-05-04T11:56:06.129Z,30.76
2023-05-04T11:58:36.148Z,32.79
2023-05-04T12:01:11.087Z,32.41
2023-05-04T12:03:52.418Z,31.62
2023-05-04T12:06:35.086Z,30.37
2023-05-04T12:09:05.739Z,30.09
2023-05-04T12:11:36.251Z,30.58
2023-05-04T12:14:10.067Z,30.49
2023-05-04T12:16:43.352Z,29.79
2023-05-04T12:19:14.459Z,29.87
2023-05-04T12:21:53.323Z,29.51
2023-05-04T12:24:25.088Z,29.87
2023-05-04T12:26:55.359Z,28.93
2023-05-04T12:29:25.255Z,30.13
2023-05-04T12:31:57.842Z,29.33
2023-05-04T12:34:27.777Z,30.91
2023-05-04T12:36:57.569Z,29.22
2023-05-04T12:39:29.047Z,28.91
2023-05-04T12:41:58.935Z,29.13
2023-05-04T12:44:29.227Z,28.07
2023-05-04T12:47:01.822Z,27.59
2023-05-04T12:49:31.741Z,29.21
2023-05-04T12:52:01.650Z,27.88
2023-05-04T12:54:31.589Z,27.64
2023-05-04T12:57:01.543Z,27.67
2023-05-04T12:59:31.508Z,28.09
2023-05-04T13:02:04.223Z,27.72
2023-05-04T13:04:34.030Z,27.76
2023-05-04T13:07:03.939Z,27.06
2023-05-04T13:09:34.128Z,27.08
2023-05-04T13:12:04.221Z,26.86
2023-05-04T13:14:39.292Z,26.71
2023-05-04T13:17:12.651Z,27.00
2023-05-04T13:19:42.513Z,27.19
2023-05-04T13:22:12.748Z,25.48
2023-05-04T13:24:42.927Z,24.61
2023-05-04T13:27:13.103Z,25.01
2023-05-04T13:29:43.115Z,24.64
2023-05-04T13:32:15.661Z,25.78
2023-05-04T13:34:47.234Z,25.79
2023-05-04T13:37:18.879Z,25.34
2023-05-04T13:39:48.978Z,25.63
2023-05-04T13:42:19.013Z,26.38
2023-05-04T13:44:49.016Z,26.16
2023-05-04T13:47:21.542Z,25.19
2023-05-04T13:49:51.652Z,25.01
2023-05-04T13:52:21.515Z,25.05
2023-05-04T13:54:51.608Z,25.04
2023-05-04T13:57:21.427Z,25.26
2023-05-04T14:00:02.829Z,25.77
2023-05-04T14:02:39.654Z,25.17
2023-05-04T14:05:10.519Z,24.79
2023-05-04T14:07:40.576Z,24.22
2023-05-04T14:10:11.972Z,25.16
2023-05-04T14:12:41.965Z,26.08
2023-05-04T14:15:12.868Z,25.87
2023-05-04T14:17:45.358Z,26.08
2023-05-04T14:20:16.401Z,25.51
2023-05-04T14:22:47.328Z,25.14
2023-05-04T14:25:17.320Z,26.09
2023-05-04T14:27:47.317Z,23.78
2023-05-04T14:30:17.909Z,25.55
2023-05-04T14:32:51.473Z,25.96
2023-05-04T14:35:21.552Z,26.02
2023-05-04T14:37:51.780Z,25.11
2023-05-04T14:40:21.683Z,24.54
2023-05-04T14:42:51.527Z,25.38
2023-05-04T14:45:21.729Z,25.00
2023-05-04T14:47:54.557Z,24.38
2023-05-04T14:50:24.587Z,24.02
2023-05-04T14:52:54.555Z,24.42
2023-05-04T14:55:24.698Z,25.11
2023-05-04T14:57:54.876Z,25.14
2023-05-04T15:00:25.186Z,24.02
2023-05-04T15:02:57.740Z,25.11
2023-05-04T15:05:27.604Z,25.27
2023-05-04T15:07:57.727Z,25.04
2023-05-04T15:10:27.837Z,25.29
2023-05-04T15:12:59.624Z,24.69
2023-05-04T15:15:29.599Z,24.96
2023-05-04T15:18:02.395Z,24.84
2023-05-04T15:20:32.560Z,23.86
2023-05-04T15:23:05.212Z,24.76
2023-05-04T15:25:37.510Z,24.81
2023-05-04T15:28:10.705Z,25.56
2023-05-04T15:30:43.292Z,25.86
2023-05-04T15:33:15.793Z,24.87
2023-05-04T15:35:48.244Z,25.92
2023-05-04T15:38:21.125Z,25.49
2023-05-04T15:40:51.104Z,25.53
2023-05-04T15:43:21.436Z,25.23
2023-05-04T15:45:52.422Z,25.45
2023-05-04T15:48:25.359Z,25.49
2023-05-04T15:50:55.237Z,26.16
2023-05-04T15:53:25.051Z,26.59
2023-05-04T15:55:54.808Z,26.07
2023-05-04T15:58:24.734Z,26.27
2023-05-04T16:00:54.856Z,25.92
2023-05-04T16:03:27.463Z,25.42
2023-05-04T16:05:57.283Z,25.70
2023-05-04T16:08:29.153Z,25.55
2023-05-04T16:10:59.387Z,25.98
2023-05-04T16:13:29.682Z,26.36
2023-05-04T16:16:00.667Z,26.23
2023-05-04T16:18:33.287Z,25.75
2023-05-04T16:21:05.539Z,26.28
2023-05-04T16:23:36.518Z,26.50
2023-05-04T16:26:06.878Z,26.47
2023-05-04T16:28:38.147Z,25.50
2023-05-04T16:31:10.331Z,25.15
2023-05-04T16:33:47.541Z,25.84
2023-05-04T16:36:17.933Z,25.25
2023-05-04T16:38:47.723Z,26.04
2023-05-04T16:41:17.532Z,26.26
2023-05-04T16:43:49.400Z,26.00
2023-05-04T16:46:19.373Z,26.48
2023-05-04T16:48:52.306Z,25.76
2023-05-04T16:51:22.565Z,26.45
2023-05-04T16:53:52.369Z,26.45
2023-05-04T16:56:28.767Z,26.48
2023-05-04T16:59:01.205Z,26.30
2023-05-04T17:01:32.294Z,26.12
2023-05-04T17:04:05.006Z,25.68
2023-05-04T17:06:38.276Z,25.91
2023-05-04T17:09:08.337Z,26.61
2023-05-04T17:11:38.234Z,27.02
2023-05-04T17:14:08.134Z,27.03
2023-05-04T17:16:38.057Z,27.59
2023-05-04T17:19:11.315Z,26.96
2023-05-04T17:21:41.292Z,27.26
2023-05-04T17:24:15.385Z,25.79
2023-05-04T17:26:45.673Z,26.95
2023-05-04T17:29:15.547Z,27.55
2023-05-04T17:31:45.480Z,27.31
2023-05-04T17:34:18.079Z,27.61
2023-05-04T17:36:48.597Z,27.47
2023-05-04T17:39:19.113Z,27.44
2023-05-04T17:41:49.953Z,27.28
2023-05-04T17:44:20.124Z,27.36
2023-05-04T17:46:51.512Z,27.03
2023-05-04T17:49:23.980Z,27.40
2023-05-04T17:51:57.180Z,27.69
2023-05-04T17:54:29.705Z,27.95
2023-05-04T17:57:00.291Z,28.04
2023-05-04T17:59:38.573Z,28.08
2023-05-04T18:02:08.495Z,28.33
2023-05-04T18:04:41.742Z,28.51
2023-05-04T18:07:11.867Z,28.75
2023-05-04T18:09:41.755Z,28.72
2023-05-04T18:12:12.459Z,28.82
2023-05-04T18:14:42.293Z,29.54
2023-05-04T18:17:12.074Z,28.89
2023-05-04T18:19:44.497Z,29.84
2023-05-04T18:22:16.912Z,29.78
2023-05-04T18:24:49.404Z,29.87
2023-05-04T18:27:19.590Z,30.15
2023-05-04T18:29:49.418Z,29.96
2023-05-04T18:32:19.232Z,30.21
2023-05-04T18:34:53.397Z,32.15
2023-05-04T18:37:23.458Z,31.40
2023-05-04T18:39:53.351Z,31.52
2023-05-04T18:42:25.777Z,32.83
2023-05-04T18:44:56.384Z,32.86
2023-05-04T18:47:26.286Z,33.13
2023-05-04T18:50:00.166Z,33.61
2023-05-04T18:52:30.534Z,33.18
2023-05-04T18:55:02.777Z,33.29
2023-05-04T18:57:32.824Z,34.54
2023-05-04T19:00:02.887Z,34.86
2023-05-04T19:02:35.668Z,35.13
2023-05-04T19:05:13.722Z,34.63
2023-05-04T19:07:44.358Z,34.87
2023-05-04T19:10:14.915Z,35.49
2023-05-04T19:12:44.776Z,36.31
2023-05-04T19:15:14.945Z,36.38
2023-05-04T19:17:44.938Z,36.92
2023-05-04T19:20:19.361Z,37.23
2023-05-04T19:22:49.568Z,38.19
2023-05-04T19:25:33.206Z,38.21
2023-05-04T19:28:08.767Z,38.27
2023-05-04T19:30:42.098Z,38.85
2023-05-04T19:33:12.029Z,39.26
2023-05-04T19:35:44.756Z,40.08
2023-05-04T19:38:14.706Z,40.87
2023-05-04T19:40:44.645Z,40.91
2023-05-04T19:43:14.522Z,41.25
2023-05-04T19:45:44.768Z,42.33
2023-05-04T19:48:17.628Z,42.26
2023-05-04T19:50:50.545Z,43.25
2023-05-04T19:53:20.350Z,43.37
2023-05-04T19:55:50.321Z,42.82
2023-05-04T19:58:20.189Z,42.93
2023-05-04T20:00:50.827Z,43.16
2023-05-04T20:03:20.821Z,43.14
2023-05-04T20:05:53.589Z,43.05
2023-05-04T20:08:25.840Z,43.76
2023-05-04T20:10:59.343Z,44.20
2023-05-04T20:13:29.235Z,44.00
2023-05-04T20:16:06.875Z,44.50
2023-05-04T20:18:39.414Z,44.13
2023-05-04T20:21:11.869Z,44.56
2023-05-04T20:23:41.737Z,44.26
2023-05-04T20:26:13.391Z,44.91
2023-05-04T20:28:45.306Z,44.73
2023-05-04T20:31:15.224Z,44.87
2023-05-04T20:33:45.242Z,45.43
2023-05-04T20:36:17.818Z,46.23
2023-05-04T20:38:49.043Z,46.31
2023-05-04T20:41:19.205Z,46.08
2023-05-04T20:43:50.356Z,46.39
2023-05-04T20:46:25.856Z,47.01
2023-05-04T20:48:55.950Z,46.73
2023-05-04T20:51:28.695Z,47.26
2023-05-04T20:53:59.833Z,47.30
2023-05-04T20:56:34.673Z,48.32
2023-05-04T20:59:04.545Z,48.39
2023-05-04T21:01:43.044Z,49.19
2023-05-04T21:04:13.896Z,48.49
2023-05-04T21:06:48.817Z,49.33
2023-05-04T21:09:21.698Z,49.00
2023-05-04T21:11:51.528Z,49.04
2023-05-04T21:14:22.968Z,49.44
2023-05-04T21:16:52.812Z,49.20
2023-05-04T21:19:22.722Z,49.56
2023-05-04T21:21:55.370Z,50.04
2023-05-04T21:24:32.918Z,50.07
2023-05-04T21:27:02.982Z,50.43
2023-05-04T21:29:32.834Z,50.33
2023-05-04T21:32:04.004Z,50.35
2023-05-04T21:34:33.845Z,49.78
2023-05-04T21:37:08.855Z,50.00
2023-05-04T21:39:39.063Z,50.28
2023-05-04T21:42:09.150Z,50.32
2023-05-04T21:44:39.118Z,50.46
2023-05-04T21:47:11.445Z,51.20
2023-05-04T21:49:43.750Z,51.34
2023-05-04T21:52:16.469Z,51.36
2023-05-04T21:54:47.627Z,51.36
2023-05-04T21:57:17.596Z,51.50
2023-05-04T21:59:50.282Z,51.62
2023-05-04T22:02:20.323Z,51.51
2023-05-04T22:04:52.272Z,51.52
2023-05-04T22:07:24.744Z,51.90
2023-05-04T22:09:54.652Z,52.00
2023-05-04T22:12:26.256Z,51.74
2023-05-04T22:14:56.381Z,52.33
2023-05-04T22:17:26.312Z,52.41
2023-05-04T22:19:56.179Z,52.36
2023-05-04T22:22:28.905Z,52.96
2023-05-04T22:24:58.874Z,52.81
2023-05-04T22:27:31.252Z,52.90
2023-05-04T22:30:01.316Z,52.91
2023-05-04T22:32:31.279Z,53.15
2023-05-04T22:35:07.404Z,53.20
2023-05-04T22:37:41.281Z,53.67
2023-05-04T22:40:14.463Z,53.41
2023-05-04T22:42:45.028Z,53.66
2023-05-04T22:45:18.484Z,52.81
2023-05-04T22:47:48.619Z,53.09
2023-05-04T22:50:18.549Z,53.27
2023-05-04T22:52:51.186Z,53.36
2023-05-04T22:55:27.451Z,52.64
2023-05-04T22:57:58.372Z,52.10
2023-05-04T23:00:28.476Z,52.37
2023-05-04T23:02:58.598Z,51.63
2023-05-04T23:05:31.339Z,51.89
2023-05-04T23:08:04.012Z,52.17
2023-05-04T23:10:41.304Z,52.19
2023-05-04T23:13:11.280Z,52.08
2023-05-04T23:15:41.284Z,51.89
2023-05-04T23:18:11.251Z,51.29
2023-05-04T23:20:43.874Z,51.32
2023-05-04T23:23:16.325Z,51.30
2023-05-04T23:25:48.544Z,50.92
2023-05-04T23:28:18.996Z,50.87
2023-05-04T23:30:48.937Z,50.83
2023-05-04T23:33:21.873Z,50.57
2023-05-04T23:35:51.741Z,51.17
2023-05-04T23:38:25.682Z,50.92
2023-05-04T23:40:55.828Z,50.99
2023-05-04T23:43:28.942Z,50.98
2023-05-04T23:46:02.771Z,51.66
2023-05-04T23:48:33.577Z,51.42
2023-05-04T23:51:05.064Z,51.62
2023-05-04T23:53:39.380Z,51.31
2023-05-04T23:56:12.449Z,51.60
2023-05-04T23:58:42.267Z,51.12
